Time;durP1;ratioP1;P1;durP2;ratioP2;P2;SDS_P1;SDS_P2;PMS_P1;PMS_P2;Temp;Humidity;BMP_temperature;BMP_pressure;BME280_temperature;BME280_humidity;BME280_pressure;Samples;Min_cycle;Max_cycle;Signal;HPM_P1;HPM_P2
2021/10/29 16:19:03;;;;;;;1.17;0.73;;;15.10;85.60;;;;;;6256605;22;20016;-78
2021/10/29 16:21:29;;;;;;;1.52;0.90;;;15.10;85.30;;;;;;6252945;22;20022;-78
2021/10/29 16:23:55;;;;;;;0.88;0.70;;;15.30;85.30;;;;;;6252519;22;20008;-79
2021/10/29 16:26:23;;;;;;;1.15;0.90;;;15.20;85.20;;;;;;6227674;22;20394;-78
2021/10/29 16:28:51;;;;;;;1.00;0.90;;;15.20;85.00;;;;;;6248298;22;20004;-78
2021/10/29 16:31:19;;;;;;;1.00;0.90;;;15.20;85.10;;;;;;6279686;22;20011;-79
2021/10/29 16:33:45;;;;;;;1.05;0.95;;;15.30;85.00;;;;;;6252144;22;20022;-79
2021/10/29 16:36:13;;;;;;;1.30;0.80;;;15.30;84.80;;;;;;6282345;22;20427;-78
2021/10/29 16:38:39;;;;;;;1.45;0.73;;;15.30;84.60;;;;;;6252841;22;20014;-79
2021/10/29 16:41:05;;;;;;;1.58;0.98;;;15.20;84.70;;;;;;6233227;22;20012;-79
2021/10/29 16:43:35;;;;;;;1.10;0.93;;;15.20;84.80;;;;;;6284811;22;20004;-79
2021/10/29 16:46:02;;;;;;;1.13;0.90;;;15.20;85.00;;;;;;6256555;22;20004;-79
2021/10/29 16:48:27;;;;;;;1.50;1.20;;;15.00;85.10;;;;;;6261566;22;20378;-80
2021/10/29 16:50:54;;;;;;;1.55;1.10;;;15.00;85.40;;;;;;6221795;22;20010;-80
2021/10/29 16:53:21;;;;;;;1.55;1.10;;;14.90;85.60;;;;;;6257717;22;20015;-80
2021/10/29 16:55:47;;;;;;;1.45;1.20;;;14.90;85.90;;;;;;6257517;22;20015;-82
2021/10/29 16:58:13;;;;;;;1.60;1.13;;;14.80;86.10;;;;;;6284965;22;20431;-82
2021/10/29 17:00:41;;;;;;;2.38;1.10;;;14.70;86.20;;;;;;6257234;22;20106;-82
2021/10/29 17:03:07;;;;;;;1.42;1.10;;;14.60;86.40;;;;;;6251921;22;20015;-82
2021/10/29 17:05:33;;;;;;;1.10;1.00;;;14.60;86.70;;;;;;6285599;22;20004;-82
2021/10/29 17:07:59;;;;;;;1.42;1.10;;;14.60;86.80;;;;;;6257636;22;20094;-82
2021/10/29 17:10:26;;;;;;;2.38;1.20;;;14.50;87.00;;;;;;6259404;22;20007;-82
2021/10/29 17:12:52;;;;;;;1.75;1.20;;;14.50;87.30;;;;;;6259885;22;20023;-82
2021/10/29 17:15:19;;;;;;;1.60;1.30;;;14.40;87.40;;;;;;6257826;22;20443;-82
2021/10/29 17:17:46;;;;;;;1.98;1.15;;;14.40;87.50;;;;;;6257401;22;20008;-83
2021/10/29 17:20:14;;;;;;;1.42;1.20;;;14.40;87.60;;;;;;6257527;22;20443;-83
2021/10/29 17:22:41;;;;;;;1.58;1.13;;;14.30;87.70;;;;;;6283478;22;20058;-82
2021/10/29 17:25:08;;;;;;;1.98;1.20;;;14.30;87.80;;;;;;6248666;22;20066;-82
2021/10/29 17:27:34;;;;;;;1.92;1.27;;;14.30;87.90;;;;;;6252032;22;20064;-83
2021/10/29 17:30:00;;;;;;;1.42;1.10;;;14.20;87.90;;;;;;6228440;22;20011;-83
2021/10/29 17:32:26;;;;;;;1.35;1.10;;;14.30;88.10;;;;;;6279284;22;20137;-82
2021/10/29 17:34:51;;;;;;;3.45;1.20;;;14.20;88.00;;;;;;6252675;22;20058;-82
2021/10/29 17:37:17;;;;;;;1.85;1.20;;;14.20;88.20;;;;;;6280685;22;20004;-82
2021/10/29 17:39:44;;;;;;;2.00;1.30;;;14.20;88.30;;;;;;6255147;22;20011;-81
2021/10/29 17:42:12;;;;;;;1.98;1.30;;;14.20;88.30;;;;;;6224425;22;20011;-82
2021/10/29 17:44:39;;;;;;;1.48;1.15;;;14.10;88.30;;;;;;6244825;22;20017;-81
2021/10/29 17:47:06;;;;;;;1.55;1.10;;;14.20;88.50;;;;;;6282178;22;20003;-82
2021/10/29 17:49:32;;;;;;;1.63;1.20;;;14.00;88.40;;;;;;6279377;22;20012;-82
2021/10/29 17:52:02;;;;;;;1.30;1.15;;;14.00;88.50;;;;;;6253566;22;20038;-82
2021/10/29 17:54:34;;;;;;;1.35;1.10;;;14.00;88.60;;;;;;6252501;22;20431;-81
2021/10/29 17:57:01;;;;;;;1.42;1.13;;;14.00;88.70;;;;;;6255084;22;20070;-84
2021/10/29 17:59:26;;;;;;;2.92;1.08;;;14.00;88.80;;;;;;6228202;22;20016;-83
2021/10/29 18:01:52;;;;;;;1.42;1.00;;;14.10;88.90;;;;;;6280121;22;20008;-83
2021/10/29 18:04:18;;;;;;;1.27;1.00;;;14.00;88.90;;;;;;6213152;22;20006;-83
2021/10/29 18:06:43;;;;;;;1.08;0.98;;;14.00;88.90;;;;;;6226060;22;20004;-85
2021/10/29 18:09:09;;;;;;;1.85;1.13;;;14.00;88.90;;;;;;6276575;22;20031;-84
2021/10/29 18:11:37;;;;;;;1.00;0.90;;;14.10;89.00;;;;;;6249715;22;20370;-84
2021/10/29 18:14:06;;;;;;;1.27;0.95;;;14.00;89.00;;;;;;6249226;22;20003;-85
2021/10/29 18:16:35;;;;;;;2.05;1.05;;;13.90;88.90;;;;;;6231876;22;20014;-84
2021/10/29 18:19:01;;;;;;;1.20;0.90;;;14.00;89.00;;;;;;6248972;22;20008;-85
2021/10/29 18:21:28;;;;;;;0.98;0.80;;;14.00;89.00;;;;;;6250633;22;20008;-85
2021/10/29 18:23:54;;;;;;;1.25;1.00;;;13.90;89.00;;;;;;6223439;22;20031;-85
2021/10/29 18:26:21;;;;;;;2.75;1.20;;;14.00;89.10;;;;;;6223805;22;20090;-85
2021/10/29 18:28:50;;;;;;;1.13;0.95;;;14.00;89.20;;;;;;6248812;22;20014;-86
2021/10/29 18:31:16;;;;;;;1.13;0.90;;;13.90;89.10;;;;;;6223952;22;20008;-85
2021/10/29 18:33:45;;;;;;;1.88;0.95;;;13.80;89.10;;;;;;6218627;22;20063;-88
2021/10/29 18:36:11;;;;;;;1.88;1.00;;;14.00;89.30;;;;;;6224542;22;20007;-85
2021/10/29 18:38:37;;;;;;;2.20;1.00;;;13.80;89.30;;;;;;6253999;22;20034;-86
2021/10/29 18:41:03;;;;;;;2.30;1.00;;;13.80;89.30;;;;;;6225299;22;20012;-86
2021/10/29 18:43:29;;;;;;;1.50;1.08;;;13.80;89.60;;;;;;6223906;22;20003;-86
2021/10/29 18:45:56;;;;;;;0.85;0.52;;;13.70;89.60;;;;;;6213476;22;20098;-86
2021/10/29 18:48:22;;;;;;;1.30;0.90;;;13.70;89.80;;;;;;6184113;22;20082;-87
2021/10/29 18:50:48;;;;;;;0.90;0.80;;;13.60;89.90;;;;;;6249515;22;20012;-86
2021/10/29 18:53:13;;;;;;;1.15;0.80;;;13.70;90.00;;;;;;6223898;22;20160;-85
2021/10/29 18:55:39;;;;;;;1.40;0.90;;;13.60;90.00;;;;;;6214424;22;20014;-86
2021/10/29 18:58:05;;;;;;;1.50;1.05;;;13.60;90.00;;;;;;6249705;22;20011;-85
2021/10/29 19:00:31;;;;;;;1.38;0.98;;;13.70;90.10;;;;;;6249268;22;20031;-86
2021/10/29 19:02:57;;;;;;;1.30;1.00;;;13.70;90.10;;;;;;6213696;22;20071;-85
2021/10/29 19:05:22;;;;;;;1.27;0.93;;;13.60;90.10;;;;;;6208839;22;20006;-85
2021/10/29 19:07:50;;;;;;;1.25;1.00;;;13.50;90.10;;;;;;6249321;22;20011;-84
2021/10/29 19:10:16;;;;;;;1.10;0.90;;;13.60;90.20;;;;;;6249426;22;20060;-85
2021/10/29 19:12:42;;;;;;;1.30;1.00;;;13.60;90.20;;;;;;6248515;22;20447;-85
2021/10/29 19:15:08;;;;;;;1.02;0.90;;;13.70;90.20;;;;;;6235789;22;20446;-86
2021/10/29 19:17:34;;;;;;;1.42;1.00;;;13.60;90.20;;;;;;6222851;22;20061;-86
2021/10/29 19:20:03;;;;;;;1.33;0.70;;;13.60;90.20;;;;;;6216822;22;20018;-85
2021/10/29 19:22:29;;;;;;;1.17;1.00;;;13.50;90.30;;;;;;6234247;22;20460;-86
2021/10/29 19:24:54;;;;;;;1.25;0.90;;;13.60;90.30;;;;;;6223462;22;20106;-84
2021/10/29 19:27:20;;;;;;;2.28;0.82;;;13.50;90.30;;;;;;6248160;22;20471;-85
2021/10/29 19:29:46;;;;;;;2.65;1.00;;;13.50;90.30;;;;;;6275970;22;20011;-85
2021/10/29 19:32:13;;;;;;;0.95;0.90;;;13.50;90.40;;;;;;6248500;22;20181;-85
2021/10/29 19:34:44;;;;;;;0.80;0.80;;;13.50;90.40;;;;;;6222980;22;20474;-83
2021/10/29 19:37:19;;;;;;;1.50;1.02;;;13.60;90.40;;;;;;6248749;22;20035;-85
2021/10/29 20:32:29;;;;;;;1.80;1.13;;;13.60;90.20;;;;;;6005048;23;20046;-86
2021/10/29 20:34:55;;;;;;;1.30;1.20;;;13.70;90.20;;;;;;6007882;23;20020;-84
2021/10/29 20:37:21;;;;;;;1.77;0.98;;;13.80;90.20;;;;;;6034116;23;20023;-81
2021/10/29 20:39:47;;;;;;;1.95;1.40;;;13.60;90.20;;;;;;6039992;23;20436;-81
2021/10/29 20:42:14;;;;;;;2.08;1.30;;;13.60;90.20;;;;;;6083839;23;20050;-81
2021/10/29 20:44:40;;;;;;;1.75;1.30;;;13.70;90.20;;;;;;6142270;23;20443;-81
2021/10/29 20:47:11;;;;;;;3.25;1.45;;;13.80;90.30;;;;;;6126836;23;20032;-81
2021/10/29 20:49:41;;;;;;;1.27;1.05;;;13.70;90.30;;;;;;6082148;23;20013;-81
2021/10/29 20:52:08;;;;;;;1.85;1.30;;;13.70;90.30;;;;;;6128931;23;20013;-81
2021/10/29 20:54:38;;;;;;;1.75;1.30;;;13.70;90.30;;;;;;6130228;23;20442;-84
2021/10/29 20:57:05;;;;;;;1.95;1.40;;;13.70;90.30;;;;;;6143510;23;19993;-81
2021/10/29 20:59:31;;;;;;;1.65;1.10;;;13.60;90.30;;;;;;6161350;22;20015;-84
2021/10/29 21:01:59;;;;;;;1.27;1.08;;;13.70;90.30;;;;;;6282550;22;20400;-84
2021/10/29 21:04:24;;;;;;;1.52;1.40;;;13.60;90.30;;;;;;6252880;22;20004;-83
2021/10/29 21:06:50;;;;;;;1.75;1.13;;;13.50;90.30;;;;;;6227303;22;20034;-83
2021/10/29 21:09:16;;;;;;;1.58;1.23;;;13.70;90.40;;;;;;6282236;22;20061;-84
2021/10/29 21:11:43;;;;;;;1.95;1.40;;;13.60;90.40;;;;;;6257401;22;20012;-84
2021/10/29 21:14:09;;;;;;;1.00;0.80;;;13.70;90.40;;;;;;6166482;23;20051;-81
2021/10/29 21:16:37;;;;;;;1.77;1.20;;;13.50;90.40;;;;;;6191164;23;20437;-82
2021/10/29 21:19:05;;;;;;;1.33;1.17;;;13.50;90.40;;;;;;6192927;23;20016;-84
2021/10/29 21:21:39;;;;;;;1.77;1.20;;;13.50;90.40;;;;;;6188966;23;20019;-85
2021/10/29 21:24:05;;;;;;;1.45;1.05;;;13.50;90.50;;;;;;6106101;23;20042;-82
2021/10/29 21:26:37;;;;;;;2.08;1.05;;;13.50;90.50;;;;;;6099962;23;20145;-82
2021/10/29 21:29:11;;;;;;;1.30;1.00;;;13.50;90.50;;;;;;6081265;23;20014;-83
2021/10/29 21:31:38;;;;;;;1.27;1.00;;;13.40;90.60;;;;;;6059887;23;20333;-81
2021/10/29 21:34:05;;;;;;;1.70;1.10;;;13.30;90.60;;;;;;6109858;23;20021;-83
2021/10/29 21:36:31;;;;;;;1.52;1.02;;;13.30;90.60;;;;;;6100743;23;20088;-82
2021/10/29 21:38:56;;;;;;;2.05;1.23;;;13.30;90.60;;;;;;6062905;23;20050;-83
2021/10/29 21:41:25;;;;;;;1.40;0.80;;;13.30;90.60;;;;;;6061828;23;20018;-84
2021/10/29 21:43:51;;;;;;;1.38;0.95;;;13.40;90.70;;;;;;6070321;23;20050;-82
2021/10/29 21:46:16;;;;;;;1.40;0.90;;;13.20;90.70;;;;;;6126748;23;20009;-83
2021/10/29 21:48:42;;;;;;;1.65;0.93;;;13.20;90.70;;;;;;6168742;23;20088;-84
2021/10/29 21:51:08;;;;;;;1.52;0.90;;;13.20;90.70;;;;;;6137950;23;20013;-84
2021/10/29 21:53:36;;;;;;;1.17;1.00;;;13.30;90.80;;;;;;6141090;23;20112;-84
2021/10/29 21:56:02;;;;;;;2.67;1.20;;;13.20;90.80;;;;;;6215815;22;19999;-83
2021/10/29 21:58:28;;;;;;;1.35;1.05;;;13.10;90.80;;;;;;6261643;22;20020;-80
2021/10/29 22:00:54;;;;;;;1.20;1.10;;;13.30;90.80;;;;;;6253919;22;20019;-82
2021/10/29 22:03:23;;;;;;;2.70;1.23;;;13.10;90.70;;;;;;6239655;22;20004;-84
2021/10/29 22:05:54;;;;;;;1.70;1.08;;;13.10;90.70;;;;;;6224522;23;20008;-86
2021/10/29 22:08:22;;;;;;;1.13;1.02;;;13.10;90.70;;;;;;6182979;23;20017;-86
2021/10/29 22:10:52;;;;;;;2.38;1.10;;;13.20;90.70;;;;;;6123619;23;20434;-82
2021/10/29 22:13:26;;;;;;;1.50;1.10;;;13.20;90.70;;;;;;6119460;23;20399;-81
2021/10/29 22:15:52;;;;;;;0.63;0.63;;;13.10;90.70;;;;;;6075631;23;20022;-81
2021/10/29 22:22:34;;;;;;;1.60;0.95;;;13.10;90.80;;;;;;5932011;24;20118;-85
2021/10/29 22:28:31;;;;;;;1.00;0.70;;;13.10;90.70;;;;;;5873717;24;20033;-82
2021/10/29 22:30:57;;;;;;;1.30;0.90;;;13.00;90.70;;;;;;5858346;24;20103;-82
2021/10/29 22:33:27;;;;;;;1.45;1.00;;;13.00;90.80;;;;;;5851020;24;20030;-82
2021/10/29 22:35:53;;;;;;;1.08;0.70;;;12.90;90.80;;;;;;5825433;24;20026;-81
2021/10/29 22:38:21;;;;;;;0.85;0.80;;;12.90;90.80;;;;;;5870932;24;20033;-80
2021/10/29 22:40:47;;;;;;;0.73;0.70;;;12.80;90.80;;;;;;5878101;24;20080;-82
2021/10/29 22:43:15;;;;;;;1.10;0.90;;;12.90;90.80;;;;;;5979419;23;20064;-81
2021/10/29 22:45:41;;;;;;;0.80;0.80;;;12.90;90.90;;;;;;5956276;23;20078;-82
2021/10/29 22:55:31;;;;;;;0.73;0.70;;;12.80;90.90;;;;;;6079058;23;20154;-85
2021/10/29 22:59:04;;;;;;;0.75;0.52;;;12.80;90.90;;;;;;6100879;23;20341;-85
2021/10/29 23:02:14;;;;;;;0.60;0.60;;;12.90;90.90;;;;;;6170942;23;20076;-83
2021/10/29 23:04:40;;;;;;;0.60;0.50;;;12.70;90.90;;;;;;6183897;23;20021;-81
2021/10/29 23:07:08;;;;;;;1.00;0.60;;;12.70;90.90;;;;;;6182606;23;20012;-82
2021/10/29 23:09:34;;;;;;;0.68;0.68;;;12.70;91.00;;;;;;6181988;23;20013;-81
2021/10/29 23:12:04;;;;;;;0.77;0.70;;;12.70;91.00;;;;;;6178795;23;20362;-81
2021/10/29 23:14:36;;;;;;;1.00;0.85;;;12.70;91.00;;;;;;6168826;23;20035;-80
2021/10/29 23:17:04;;;;;;;0.70;0.55;;;12.60;90.90;;;;;;6153132;23;20083;-80
2021/10/29 23:23:32;;;;;;;0.77;0.60;;;12.60;91.00;;;;;;6211642;23;20357;-80
2021/10/29 23:25:58;;;;;;;0.63;0.60;;;12.60;91.00;;;;;;6215965;23;20008;-80
2021/10/29 23:28:25;;;;;;;0.77;0.70;;;12.50;91.00;;;;;;6183592;23;20017;-80
2021/10/29 23:30:51;;;;;;;1.10;0.77;;;12.50;91.10;;;;;;6213755;23;20024;-80
2021/10/29 23:33:17;;;;;;;0.68;0.60;;;12.50;91.10;;;;;;6189023;23;20019;-81
2021/10/29 23:35:43;;;;;;;0.70;0.70;;;12.50;91.20;;;;;;6232367;23;19996;-80
2021/10/29 23:38:10;;;;;;;0.82;0.68;;;12.50;91.20;;;;;;6175665;23;20115;-80
2021/10/29 23:40:38;;;;;;;0.63;0.63;;;12.40;91.20;;;;;;6209278;23;20072;-81
2021/10/29 23:43:08;;;;;;;0.90;0.80;;;12.40;91.20;;;;;;6210187;23;20083;-80
2021/10/29 23:45:33;;;;;;;0.32;0.32;;;12.40;91.30;;;;;;6162519;23;20013;-80
2021/10/29 23:47:59;;;;;;;0.63;0.50;;;12.40;91.30;;;;;;6212733;23;20353;-80
2021/10/29 23:50:25;;;;;;;0.65;0.50;;;12.40;91.30;;;;;;6219204;22;20008;-80
2021/10/29 23:52:51;;;;;;;0.45;0.45;;;12.30;91.30;;;;;;6275309;22;20042;-79
2021/10/29 23:55:16;;;;;;;0.60;0.50;;;12.30;91.60;;;;;;6274792;22;20053;-80
2021/10/29 23:57:42;;;;;;;0.60;0.57;;;12.20;91.40;;;;;;6274295;22;19992;-80
